Time;durP1;ratioP1;P1;durP2;ratioP2;P2;SDS_P1;SDS_P2;PMS_P1;PMS_P2;Temp;Humidity;BMP_temperature;BMP_pressure;BME280_temperature;BME280_humidity;BME280_pressure;Samples;Min_cycle;Max_cycle;Signal;HPM_P1;HPM_P2
2021/04/29 03:12:39;;;;;;;3.22;2.50;;;23.50;48.80;;;;;;5681961;23;20071;-61
2021/04/29 03:15:07;;;;;;;3.90;2.53;;;23.50;48.80;;;;;;4954936;29;20039;-61
2021/04/29 03:17:34;;;;;;;4.10;2.38;;;23.50;48.90;;;;;;4940825;29;20035;-61
2021/04/29 03:20:00;;;;;;;3.20;2.63;;;23.50;48.90;;;;;;4951938;29;20043;-61
2021/04/29 03:22:26;;;;;;;2.72;2.50;;;23.50;48.90;;;;;;4954819;29;20504;-61
2021/04/29 03:24:52;;;;;;;6.00;2.58;;;23.50;48.90;;;;;;4937044;29;20031;-61
2021/04/29 03:27:19;;;;;;;5.28;2.65;;;23.50;48.90;;;;;;4954846;29;20038;-61
2021/04/29 03:29:45;;;;;;;3.47;2.85;;;23.50;48.90;;;;;;4955052;29;20042;-61
2021/04/29 03:32:11;;;;;;;4.95;3.20;;;23.50;48.90;;;;;;4954786;29;20031;-61
2021/04/29 03:34:37;;;;;;;3.08;2.22;;;23.50;48.90;;;;;;4956072;29;20046;-56
2021/04/29 03:37:03;;;;;;;2.80;2.28;;;23.50;48.90;;;;;;4939259;29;20150;-56
2021/04/29 03:39:29;;;;;;;3.45;3.00;;;23.50;48.90;;;;;;4939496;29;20031;-56
2021/04/29 03:41:55;;;;;;;3.08;2.78;;;23.50;48.90;;;;;;4956689;29;20126;-56
2021/04/29 03:44:21;;;;;;;5.00;2.45;;;23.40;48.80;;;;;;4956395;29;20110;-56
2021/04/29 03:46:47;;;;;;;4.10;2.30;;;23.50;48.90;;;;;;4956253;29;20051;-56
2021/04/29 03:49:13;;;;;;;5.43;2.58;;;23.40;48.80;;;;;;4938953;29;20043;-56
2021/04/29 03:51:39;;;;;;;4.07;2.53;;;23.40;48.80;;;;;;4939040;29;20099;-56
2021/04/29 03:54:05;;;;;;;5.57;2.33;;;23.40;48.80;;;;;;4956351;29;20039;-56
2021/04/29 03:56:31;;;;;;;5.35;2.90;;;23.50;48.90;;;;;;4956390;29;20050;-56
2021/04/29 03:58:57;;;;;;;2.70;2.47;;;23.40;48.80;;;;;;4938282;29;20116;-56
2021/04/29 04:01:23;;;;;;;4.30;3.38;;;23.50;48.90;;;;;;4955889;29;20363;-56
2021/04/29 04:03:49;;;;;;;3.38;2.47;;;23.50;48.90;;;;;;4956423;29;20036;-57
2021/04/29 04:06:15;;;;;;;3.03;2.22;;;23.40;48.80;;;;;;4956008;29;20123;-57
2021/04/29 04:08:41;;;;;;;2.88;2.17;;;23.40;48.80;;;;;;4955895;29;20042;-56
2021/04/29 04:11:08;;;;;;;4.03;2.40;;;23.40;48.80;;;;;;4955739;29;20031;-56
2021/04/29 04:13:34;;;;;;;2.55;2.17;;;23.40;48.80;;;;;;4955986;29;20090;-56
2021/04/29 04:16:00;;;;;;;4.90;2.72;;;23.40;48.80;;;;;;4955706;29;20103;-56
2021/04/29 04:18:26;;;;;;;3.03;1.98;;;23.40;48.80;;;;;;4956064;29;20079;-56
2021/04/29 04:20:52;;;;;;;3.45;2.55;;;23.40;48.80;;;;;;4955562;29;20075;-56
2021/04/29 04:23:18;;;;;;;4.95;2.53;;;23.40;48.90;;;;;;4955918;29;20089;-56
2021/04/29 04:25:45;;;;;;;2.83;2.00;;;23.40;48.90;;;;;;4956214;29;20036;-57
2021/04/29 04:28:11;;;;;;;3.08;2.42;;;23.40;48.90;;;;;;4955666;29;20039;-56
2021/04/29 04:30:37;;;;;;;3.92;2.75;;;23.40;48.90;;;;;;4955953;29;20046;-56
2021/04/29 04:33:03;;;;;;;4.13;2.53;;;23.40;48.90;;;;;;4955706;29;20019;-57
2021/04/29 04:35:29;;;;;;;3.40;2.50;;;23.40;48.90;;;;;;4955469;29;20039;-57
2021/04/29 04:37:55;;;;;;;2.70;2.40;;;23.40;49.00;;;;;;4955358;29;20036;-55
2021/04/29 04:40:21;;;;;;;4.20;2.60;;;23.40;48.90;;;;;;4938082;29;20126;-55
2021/04/29 04:42:47;;;;;;;4.78;2.85;;;23.40;48.90;;;;;;4936470;29;20112;-55
2021/04/29 04:45:14;;;;;;;2.95;1.95;;;23.40;48.90;;;;;;4954472;29;20458;-56
2021/04/29 04:47:40;;;;;;;3.50;2.15;;;23.40;48.90;;;;;;4954940;29;20417;-56
2021/04/29 04:50:07;;;;;;;5.55;2.45;;;23.40;48.90;;;;;;4955053;29;20039;-56
2021/04/29 04:52:34;;;;;;;3.58;2.30;;;23.40;48.90;;;;;;4955120;29;20118;-56
2021/04/29 04:55:00;;;;;;;4.85;2.60;;;23.40;48.90;;;;;;4955308;29;20062;-56
2021/04/29 04:57:26;;;;;;;4.15;2.92;;;23.30;48.90;;;;;;4955407;29;20126;-56
2021/04/29 04:59:52;;;;;;;3.55;2.70;;;23.40;48.90;;;;;;4955049;29;20091;-56
2021/04/29 05:02:19;;;;;;;3.50;2.65;;;23.40;48.90;;;;;;4954264;29;20046;-56
2021/04/29 05:04:45;;;;;;;3.25;2.65;;;23.40;48.90;;;;;;4958845;28;20369;-56
2021/04/29 05:07:11;;;;;;;2.75;2.20;;;23.30;48.80;;;;;;4961209;28;20110;-61
2021/04/29 05:09:38;;;;;;;3.78;2.80;;;23.30;48.80;;;;;;4952543;28;20031;-61
2021/04/29 05:12:04;;;;;;;4.65;2.65;;;23.30;48.80;;;;;;4957401;28;20482;-61
2021/04/29 05:14:30;;;;;;;3.40;2.42;;;23.30;48.80;;;;;;4935420;29;20414;-61
2021/04/29 05:16:57;;;;;;;3.40;3.00;;;23.30;48.80;;;;;;4952638;29;20521;-60
2021/04/29 05:19:23;;;;;;;5.18;2.50;;;23.30;48.70;;;;;;4959815;28;20551;-60
2021/04/29 05:21:49;;;;;;;4.88;2.75;;;23.30;48.70;;;;;;4968957;28;20042;-61
2021/04/29 05:24:15;;;;;;;3.72;2.60;;;23.30;48.70;;;;;;4952334;29;20107;-60
2021/04/29 05:26:41;;;;;;;6.25;2.88;;;23.20;48.70;;;;;;4935016;29;20133;-60
2021/04/29 05:29:08;;;;;;;7.38;2.47;;;23.20;48.70;;;;;;4950178;28;20030;-56
2021/04/29 05:31:35;;;;;;;4.75;2.63;;;23.30;48.80;;;;;;4973587;28;20054;-56
2021/04/29 05:34:02;;;;;;;4.75;2.42;;;23.20;48.70;;;;;;4956408;28;20138;-56
2021/04/29 05:36:28;;;;;;;6.38;2.92;;;23.20;48.70;;;;;;4953795;28;20089;-56
2021/04/29 05:38:54;;;;;;;3.95;2.60;;;23.20;48.60;;;;;;4960188;28;20513;-56
2021/04/29 05:41:20;;;;;;;3.45;2.15;;;23.20;48.60;;;;;;4965680;28;20050;-56
2021/04/29 05:43:46;;;;;;;3.25;2.30;;;23.20;48.70;;;;;;4971930;28;20041;-56
2021/04/29 05:46:13;;;;;;;5.25;2.67;;;23.20;48.60;;;;;;4953853;28;20057;-56
2021/04/29 05:48:39;;;;;;;10.98;3.17;;;23.20;48.60;;;;;;4953969;29;20031;-56
2021/04/29 05:51:06;;;;;;;5.45;2.30;;;23.20;48.50;;;;;;4936394;29;20035;-60
2021/04/29 05:53:32;;;;;;;4.65;2.55;;;23.20;48.50;;;;;;4952440;29;20036;-61
2021/04/29 05:55:58;;;;;;;3.97;2.08;;;23.20;48.50;;;;;;4952438;29;20063;-62
2021/04/29 05:58:24;;;;;;;3.00;2.60;;;23.20;48.40;;;;;;4951952;29;20098;-61
2021/04/29 06:00:50;;;;;;;2.95;2.17;;;23.20;48.50;;;;;;4952051;29;20045;-61
2021/04/29 06:03:16;;;;;;;3.63;2.55;;;23.10;48.40;;;;;;4949750;28;20366;-60
2021/04/29 06:05:42;;;;;;;5.55;2.78;;;23.20;48.30;;;;;;4949109;28;20035;-60
2021/04/29 06:08:08;;;;;;;7.25;2.72;;;23.10;48.30;;;;;;4953066;28;20126;-60
2021/04/29 06:10:35;;;;;;;4.60;2.63;;;23.20;48.30;;;;;;4971441;28;20038;-60
2021/04/29 06:13:03;;;;;;;7.38;3.53;;;23.10;48.30;;;;;;4945044;29;20051;-60
2021/04/29 06:15:30;;;;;;;5.20;2.53;;;23.10;48.20;;;;;;4952228;29;20051;-60
2021/04/29 06:17:56;;;;;;;4.72;2.58;;;23.10;48.10;;;;;;4952069;29;20040;-61
2021/04/29 06:20:23;;;;;;;6.03;2.88;;;23.20;48.10;;;;;;4953715;28;20114;-60
2021/04/29 06:22:49;;;;;;;11.00;2.97;;;23.10;48.10;;;;;;4972345;28;20065;-61
2021/04/29 06:25:15;;;;;;;4.68;3.00;;;23.10;48.00;;;;;;4974890;28;20576;-61
2021/04/29 06:27:41;;;;;;;5.03;2.40;;;23.10;48.00;;;;;;4957585;28;20109;-61
2021/04/29 06:30:08;;;;;;;6.63;4.63;;;23.20;48.10;;;;;;4974870;28;20035;-60
2021/04/29 06:32:35;;;;;;;6.00;4.07;;;23.20;48.00;;;;;;4974796;28;20155;-61
2021/04/29 06:35:02;;;;;;;9.23;3.17;;;23.20;48.10;;;;;;4974907;28;20429;-61
2021/04/29 06:37:28;;;;;;;6.28;4.00;;;23.20;48.10;;;;;;4974669;28;20042;-60
2021/04/29 06:39:54;;;;;;;8.70;3.80;;;23.20;48.10;;;;;;4974806;28;20053;-61
2021/04/29 06:42:20;;;;;;;8.38;3.90;;;23.20;48.10;;;;;;4974616;28;20054;-61
2021/04/29 06:44:46;;;;;;;6.10;4.05;;;23.20;48.10;;;;;;4974774;28;20110;-61
2021/04/29 06:47:12;;;;;;;5.78;4.05;;;23.20;48.10;;;;;;4974376;28;20038;-60
2021/04/29 06:49:38;;;;;;;6.85;4.22;;;23.20;48.10;;;;;;4974728;28;20365;-60
2021/04/29 06:52:04;;;;;;;9.90;4.30;;;23.20;48.00;;;;;;4957370;28;20389;-60
2021/04/29 06:54:30;;;;;;;6.75;4.18;;;23.20;48.00;;;;;;4974395;28;20030;-60
2021/04/29 06:56:58;;;;;;;6.55;3.40;;;23.20;48.00;;;;;;4974426;28;20434;-60
2021/04/29 06:59:24;;;;;;;7.43;3.72;;;23.20;47.90;;;;;;4974329;28;20122;-60
2021/04/29 07:01:50;;;;;;;6.15;4.25;;;23.20;48.00;;;;;;4956893;28;20042;-60
2021/04/29 07:04:16;;;;;;;8.85;3.80;;;23.20;47.90;;;;;;4974247;28;20145;-60
2021/04/29 07:06:42;;;;;;;7.53;4.95;;;23.30;48.00;;;;;;4974198;28;20050;-60
2021/04/29 07:09:09;;;;;;;8.73;4.13;;;23.30;47.90;;;;;;4974295;28;20441;-60
2021/04/29 07:11:35;;;;;;;8.10;4.25;;;23.30;47.80;;;;;;4974385;28;20553;-60
2021/04/29 07:14:01;;;;;;;7.68;3.72;;;23.30;47.80;;;;;;4974103;28;20117;-60
2021/04/29 07:16:27;;;;;;;8.48;4.75;;;23.30;47.80;;;;;;4973860;28;20485;-60
2021/04/29 07:18:54;;;;;;;6.13;3.95;;;23.30;47.70;;;;;;4974102;28;20103;-61
2021/04/29 07:21:20;;;;;;;7.35;4.47;;;23.30;47.70;;;;;;4973849;28;20051;-60
2021/04/29 07:23:47;;;;;;;9.63;4.32;;;23.30;47.70;;;;;;4973997;28;20038;-60
2021/04/29 07:26:15;;;;;;;8.88;3.63;;;23.40;47.70;;;;;;4973880;28;20027;-60
2021/04/29 07:28:42;;;;;;;8.68;4.35;;;23.40;47.60;;;;;;4973790;28;20496;-60
2021/04/29 07:31:08;;;;;;;11.45;4.95;;;23.40;47.70;;;;;;4973421;28;20035;-60
2021/04/29 07:33:34;;;;;;;8.13;4.60;;;23.40;47.50;;;;;;4973321;28;20473;-60
2021/04/29 07:36:00;;;;;;;9.05;4.43;;;23.40;47.50;;;;;;4972864;28;20050;-60
2021/04/29 07:38:26;;;;;;;8.57;4.47;;;23.50;47.50;;;;;;4956289;28;20418;-60
2021/04/29 07:40:52;;;;;;;11.30;4.03;;;23.50;47.40;;;;;;4973532;28;20078;-60
2021/04/29 07:43:18;;;;;;;16.02;5.68;;;23.50;47.40;;;;;;4973303;28;20063;-60
2021/04/29 07:45:44;;;;;;;11.10;5.00;;;23.50;47.40;;;;;;4973459;28;20058;-60
2021/04/29 07:48:10;;;;;;;16.60;5.13;;;23.50;47.30;;;;;;4973269;28;20042;-60
2021/04/29 07:50:36;;;;;;;17.98;5.43;;;23.50;47.20;;;;;;4956086;28;20046;-60
2021/04/29 07:53:02;;;;;;;16.02;5.68;;;23.60;47.30;;;;;;4972904;28;20039;-60
2021/04/29 07:55:29;;;;;;;13.07;4.90;;;23.50;47.10;;;;;;4955587;28;20038;-60
2021/04/29 07:57:55;;;;;;;19.63;5.80;;;23.60;47.20;;;;;;4955678;28;20145;-60
2021/04/29 08:00:21;;;;;;;22.23;5.85;;;23.60;47.10;;;;;;4972703;28;20457;-60
2021/04/29 08:02:48;;;;;;;24.63;5.97;;;23.60;47.10;;;;;;4972570;28;20078;-60
2021/04/29 08:05:15;;;;;;;16.92;5.13;;;23.60;47.00;;;;;;4972850;28;20113;-60
2021/04/29 08:07:41;;;;;;;21.92;5.97;;;23.70;47.10;;;;;;4972745;28;20031;-60
2021/04/29 08:10:09;;;;;;;23.25;7.80;;;23.70;47.10;;;;;;4972817;28;20473;-60
2021/04/29 08:12:40;;;;;;;28.98;7.28;;;23.70;47.00;;;;;;4955075;28;20447;-61
2021/04/29 08:15:07;;;;;;;27.27;6.40;;;23.70;47.00;;;;;;4972558;28;20568;-60
2021/04/29 08:17:33;;;;;;;29.15;7.28;;;23.70;47.00;;;;;;4972537;28;20070;-60
2021/04/29 08:20:00;;;;;;;29.80;8.13;;;23.70;46.90;;;;;;4972531;28;20126;-60
2021/04/29 08:22:27;;;;;;;33.15;9.05;;;23.80;47.00;;;;;;4954999;28;20046;-63
2021/04/29 08:24:55;;;;;;;48.50;21.75;;;23.80;46.80;;;;;;4972559;28;20073;-62
2021/04/29 08:27:22;;;;;;;33.38;17.85;;;23.80;46.50;;;;;;4972393;28;20346;-63
2021/04/29 08:29:48;;;;;;;26.33;13.63;;;23.80;46.20;;;;;;4955187;28;20049;-63
2021/04/29 08:32:14;;;;;;;24.83;15.27;;;23.90;45.80;;;;;;4954943;28;20090;-63
2021/04/29 08:34:40;;;;;;;15.75;6.95;;;23.80;45.90;;;;;;4972478;28;20078;-63
2021/04/29 08:37:06;;;;;;;14.30;8.57;;;23.80;44.90;;;;;;4972377;28;20065;-63
2021/04/29 08:39:33;;;;;;;16.40;9.35;;;23.90;45.10;;;;;;4953794;28;20046;-63
2021/04/29 08:41:59;;;;;;;19.25;9.20;;;23.80;45.10;;;;;;4971086;28;20043;-63
2021/04/29 08:44:25;;;;;;;12.15;6.50;;;23.90;45.10;;;;;;4953649;28;20413;-63
2021/04/29 08:46:51;;;;;;;11.82;6.88;;;23.80;45.20;;;;;;4970474;28;20563;-64
2021/04/29 08:49:21;;;;;;;11.77;6.10;;;23.80;45.10;;;;;;4970839;28;20373;-63
2021/04/29 08:51:49;;;;;;;9.05;5.13;;;23.90;45.40;;;;;;4970945;28;20094;-63
2021/04/29 08:54:15;;;;;;;13.80;4.25;;;23.90;45.60;;;;;;4970739;28;20485;-65
2021/04/29 08:56:41;;;;;;;9.48;4.25;;;23.80;45.30;;;;;;4970942;28;20110;-66
2021/04/29 08:59:07;;;;;;;12.95;4.25;;;23.90;45.50;;;;;;4971559;28;20476;-65
2021/04/29 09:01:42;;;;;;;9.55;3.40;;;23.90;45.70;;;;;;4971848;28;20074;-65
2021/04/29 09:04:09;;;;;;;5.15;2.92;;;23.90;46.00;;;;;;4971820;28;20035;-65
2021/04/29 09:06:36;;;;;;;6.47;2.75;;;23.80;45.90;;;;;;4961648;28;20063;-65
2021/04/29 09:09:02;;;;;;;9.93;2.80;;;23.80;46.30;;;;;;4958551;28;20035;-65
2021/04/29 09:11:28;;;;;;;9.63;2.60;;;23.80;46.60;;;;;;4955179;28;20456;-63
2021/04/29 09:14:00;;;;;;;5.78;2.63;;;23.90;47.00;;;;;;4952342;29;20483;-63
2021/04/29 09:16:45;;;;;;;4.75;2.30;;;23.90;46.90;;;;;;4952678;29;20063;-63
2021/04/29 09:19:22;;;;;;;9.45;3.00;;;23.80;47.00;;;;;;4952370;29;20512;-62
2021/04/29 09:21:49;;;;;;;7.93;2.92;;;23.90;47.00;;;;;;4952772;29;20081;-62
2021/04/29 09:24:16;;;;;;;7.75;3.08;;;23.80;46.80;;;;;;4952790;29;20035;-63
2021/04/29 09:26:43;;;;;;;4.55;2.40;;;23.90;47.10;;;;;;4952663;29;20158;-63
2021/04/29 09:29:16;;;;;;;8.10;2.38;;;23.80;47.10;;;;;;4935400;29;20039;-63
2021/04/29 09:31:45;;;;;;;5.43;2.17;;;23.80;47.00;;;;;;4952389;29;20039;-63
2021/04/29 09:34:11;;;;;;;4.13;2.22;;;23.90;47.30;;;;;;4935519;29;20042;-62
2021/04/29 09:36:43;;;;;;;8.15;2.88;;;23.90;47.40;;;;;;4938643;29;20039;-63
2021/04/29 09:39:17;;;;;;;6.22;2.75;;;23.90;47.30;;;;;;4937572;28;20036;-62
2021/04/29 09:41:46;;;;;;;7.68;3.08;;;23.90;47.80;;;;;;4955031;28;20912;-62
2021/04/29 09:44:23;;;;;;;7.90;2.47;;;24.00;47.70;;;;;;4967740;28;20504;-62
2021/04/29 09:46:53;;;;;;;4.60;2.33;;;24.00;47.70;;;;;;4935173;29;20039;-62
2021/04/29 09:49:34;;;;;;;5.60;2.38;;;24.00;47.20;;;;;;4952508;29;20094;-62
2021/04/29 09:52:21;;;;;;;6.47;2.40;;;24.00;47.10;;;;;;4919495;29;20043;-63
2021/04/29 09:54:48;;;;;;;5.50;2.78;;;24.10;46.60;;;;;;4952121;29;20168;-62
2021/04/29 09:57:22;;;;;;;6.70;2.15;;;24.10;46.40;;;;;;4952822;28;20046;-62
2021/04/29 09:59:53;;;;;;;41.40;36.95;;;24.20;46.00;;;;;;4956306;29;20146;-59
2021/04/29 10:02:20;;;;;;;77.22;69.30;;;24.20;45.70;;;;;;4956309;29;20474;-62
2021/04/29 10:04:46;;;;;;;33.92;30.35;;;24.20;45.70;;;;;;4956021;29;20114;-62
2021/04/29 10:07:15;;;;;;;17.65;13.13;;;24.20;45.70;;;;;;4971919;28;20045;-64
2021/04/29 10:09:43;;;;;;;9.73;4.35;;;24.30;45.10;;;;;;4974394;28;20038;-61
2021/04/29 10:12:14;;;;;;;5.47;2.65;;;24.30;44.70;;;;;;4956942;28;20136;-63
2021/04/29 10:14:48;;;;;;;5.22;2.63;;;24.30;44.60;;;;;;4956885;28;20682;-63
2021/04/29 10:17:16;;;;;;;5.95;2.42;;;24.30;44.50;;;;;;4956755;28;20046;-63
2021/04/29 10:19:50;;;;;;;4.63;2.10;;;24.40;44.70;;;;;;4974030;28;20049;-63
2021/04/29 10:22:17;;;;;;;6.40;2.35;;;24.40;44.70;;;;;;4974006;28;20144;-64
2021/04/29 10:24:45;;;;;;;7.95;2.10;;;24.50;44.70;;;;;;4973756;28;20089;-63
2021/04/29 10:27:15;;;;;;;6.95;2.85;;;24.50;44.40;;;;;;4956183;28;20042;-63
2021/04/29 10:29:43;;;;;;;3.13;1.70;;;24.50;43.60;;;;;;4956777;28;20599;-63
2021/04/29 10:32:13;;;;;;;2.97;1.80;;;24.60;43.70;;;;;;4973697;28;20045;-63
2021/04/29 10:34:44;;;;;;;4.63;2.38;;;24.60;43.50;;;;;;4973874;28;20035;-63
2021/04/29 10:37:23;;;;;;;5.60;2.05;;;24.60;43.20;;;;;;4973604;28;20046;-63
2021/04/29 10:40:04;;;;;;;5.78;2.10;;;24.70;43.00;;;;;;4973693;28;20046;-64
2021/04/29 10:42:42;;;;;;;7.82;2.00;;;24.60;43.00;;;;;;4973562;28;20043;-64
2021/04/29 10:45:11;;;;;;;6.15;2.50;;;24.70;43.50;;;;;;4956093;28;20512;-64
2021/04/29 10:47:40;;;;;;;8.45;1.92;;;24.70;44.00;;;;;;4973434;28;20038;-64
2021/04/29 10:50:13;;;;;;;3.30;1.90;;;24.80;43.80;;;;;;4956025;28;20496;-64
2021/04/29 10:53:01;;;;;;;188.52;165.48;;;24.80;44.00;;;;;;4973495;28;20066;-60
2021/04/29 10:55:35;;;;;;;197.52;176.40;;;24.90;43.80;;;;;;4955969;28;20130;-60
2021/04/29 10:58:02;;;;;;;157.65;141.05;;;24.90;43.70;;;;;;4973525;28;20049;-61
2021/04/29 11:00:33;;;;;;;55.22;49.38;;;25.00;43.80;;;;;;4973349;28;20390;-59
2021/04/29 11:03:07;;;;;;;39.50;35.25;;;25.10;43.60;;;;;;4955729;28;20489;-60
2021/04/29 11:05:36;;;;;;;32.35;28.98;;;25.20;43.40;;;;;;4973325;28;20043;-60
2021/04/29 11:08:08;;;;;;;13.55;9.27;;;25.20;43.30;;;;;;4972923;28;20045;-61
2021/04/29 11:10:38;;;;;;;5.07;3.88;;;25.30;42.90;;;;;;4973402;28;20039;-61
2021/04/29 11:13:06;;;;;;;5.45;3.40;;;25.30;42.20;;;;;;4939959;28;20485;-61
2021/04/29 11:15:37;;;;;;;3.80;2.25;;;25.30;42.30;;;;;;4972985;28;20062;-60
2021/04/29 11:18:26;;;;;;;7.65;2.72;;;25.30;42.40;;;;;;4973141;28;20035;-61
2021/04/29 11:20:53;;;;;;;5.43;2.83;;;25.30;42.30;;;;;;4973061;28;20063;-61
2021/04/29 11:23:26;;;;;;;7.68;2.65;;;25.40;42.60;;;;;;4972645;28;20114;-61
2021/04/29 11:26:07;;;;;;;7.00;2.58;;;25.40;43.10;;;;;;4972726;28;20039;-61
2021/04/29 11:28:32;;;;;;;;;;;25.40;43.60;;;;;;4965221;28;20043;-61
2021/04/29 11:30:59;;;;;;;6.82;2.75;;;25.40;44.20;;;;;;4955207;28;19913;-61
2021/04/29 11:33:35;;;;;;;6.63;3.30;;;25.50;44.60;;;;;;4972588;28;20042;-61
2021/04/29 11:36:14;;;;;;;7.28;3.42;;;25.40;45.90;;;;;;4972436;28;20042;-62
2021/04/29 11:39:09;;;;;;;9.88;3.25;;;25.50;45.80;;;;;;4972344;28;20043;-61
2021/04/29 11:41:38;;;;;;;10.15;3.22;;;25.50;45.20;;;;;;4972317;28;20544;-60
2021/04/29 11:44:06;;;;;;;8.88;3.28;;;25.50;44.70;;;;;;4972251;28;20046;-60
2021/04/29 11:46:35;;;;;;;6.90;2.67;;;25.50;44.40;;;;;;4972254;28;20043;-60
2021/04/29 11:49:06;;;;;;;5.80;3.08;;;25.50;44.00;;;;;;4972140;28;20102;-60
2021/04/29 11:51:42;;;;;;;7.70;2.75;;;25.60;43.30;;;;;;4972356;28;20063;-60
2021/04/29 11:54:09;;;;;;;4.30;2.30;;;25.60;44.50;;;;;;4971865;28;20053;-59
2021/04/29 11:57:04;;;;;;;11.60;3.38;;;25.60;44.30;;;;;;4972243;28;20038;-60
2021/04/29 11:59:32;;;;;;;8.20;2.80;;;25.70;44.70;;;;;;4874598;29;20041;-61
2021/04/29 12:02:00;;;;;;;10.10;3.63;;;25.80;44.90;;;;;;4874788;29;20067;-60
2021/04/29 12:04:27;;;;;;;5.20;2.80;;;25.80;45.00;;;;;;4874523;29;20486;-60
2021/04/29 12:06:56;;;;;;;9.57;3.40;;;25.90;45.00;;;;;;4874655;29;20101;-60
2021/04/29 12:09:23;;;;;;;8.32;2.78;;;26.00;45.00;;;;;;4858699;29;20048;-60
2021/04/29 12:11:50;;;;;;;10.30;3.33;;;26.00;45.00;;;;;;4874327;29;20587;-60
2021/04/29 12:14:27;;;;;;;12.45;3.08;;;26.00;45.00;;;;;;4874194;29;20072;-61
2021/04/29 12:17:04;;;;;;;10.57;3.45;;;26.10;45.00;;;;;;4874650;29;20052;-61
2021/04/29 12:19:31;;;;;;;20.83;4.80;;;26.10;44.80;;;;;;4874477;29;20059;-61
2021/04/29 12:21:58;;;;;;;12.15;3.22;;;26.10;44.90;;;;;;4874151;29;20049;-61
2021/04/29 12:24:27;;;;;;;8.43;2.88;;;26.20;44.70;;;;;;4874369;29;20045;-61
2021/04/29 12:26:53;;;;;;;11.35;3.47;;;26.20;44.40;;;;;;4858515;29;20516;-61
2021/04/29 12:29:21;;;;;;;6.15;3.15;;;26.20;44.30;;;;;;4858429;29;20064;-62
2021/04/29 12:31:58;;;;;;;12.13;3.60;;;26.20;44.40;;;;;;4874214;29;20500;-62
2021/04/29 12:34:25;;;;;;;6.53;3.20;;;26.20;44.00;;;;;;4874118;29;20049;-63
2021/04/29 12:37:00;;;;;;;9.20;3.50;;;26.30;44.20;;;;;;4929792;28;20050;-63
2021/04/29 12:39:27;;;;;;;8.20;2.80;;;26.30;44.20;;;;;;4917005;29;20047;-63
2021/04/29 12:41:56;;;;;;;4.85;2.80;;;26.30;43.90;;;;;;4934038;29;20042;-62
2021/04/29 12:44:48;;;;;;;10.57;3.03;;;26.30;43.60;;;;;;4934294;29;20035;-62
2021/04/29 12:47:36;;;;;;;7.22;2.85;;;26.30;43.60;;;;;;4934452;29;20044;-62
2021/04/29 12:50:08;;;;;;;7.82;3.35;;;26.30;43.90;;;;;;4934460;29;20051;-62
2021/04/29 12:52:49;;;;;;;9.35;3.70;;;26.40;44.00;;;;;;4933999;29;20099;-62
2021/04/29 12:55:18;;;;;;;6.28;3.17;;;26.30;43.70;;;;;;4934343;29;20047;-61
2021/04/29 12:57:44;;;;;;;7.38;2.97;;;26.20;43.90;;;;;;4934703;29;20044;-61
2021/04/29 13:00:12;;;;;;;7.18;3.15;;;26.20;44.20;;;;;;4934631;29;20048;-61
2021/04/29 13:02:39;;;;;;;7.82;3.15;;;26.10;44.50;;;;;;4917861;29;20049;-61
2021/04/29 13:05:08;;;;;;;8.00;3.78;;;26.10;44.60;;;;;;4934750;29;20053;-61
2021/04/29 13:07:35;;;;;;;3.72;3.30;;;26.10;44.60;;;;;;4934017;29;20040;-61
2021/04/29 13:10:16;;;;;;;6.13;3.67;;;26.10;44.70;;;;;;4933673;29;20209;-61
2021/04/29 13:12:53;;;;;;;6.47;3.35;;;26.10;44.90;;;;;;4932330;29;20047;-61
2021/04/29 13:15:20;;;;;;;5.07;3.15;;;26.10;45.00;;;;;;4933377;29;20036;-61
2021/04/29 13:17:47;;;;;;;9.07;3.55;;;26.10;45.00;;;;;;4933554;29;20051;-61
2021/04/29 13:20:17;;;;;;;12.20;3.28;;;26.20;45.30;;;;;;4933688;29;20039;-61
2021/04/29 13:22:43;;;;;;;7.47;3.25;;;26.20;45.30;;;;;;4933773;29;20040;-61
2021/04/29 13:25:13;;;;;;;8.70;4.03;;;26.20;45.40;;;;;;4933192;29;20072;-60
2021/04/29 13:27:41;;;;;;;8.40;3.85;;;26.30;45.70;;;;;;4917139;29;20044;-60
2021/04/29 13:30:08;;;;;;;9.82;3.53;;;26.30;45.60;;;;;;4933905;29;20035;-60
2021/04/29 13:32:34;;;;;;;11.38;3.67;;;26.30;45.60;;;;;;4936167;29;20035;-60
2021/04/29 13:35:01;;;;;;;8.00;3.30;;;26.30;45.50;;;;;;4920748;29;20094;-59
2021/04/29 13:37:28;;;;;;;7.60;3.67;;;26.40;45.50;;;;;;4937211;29;20383;-61
2021/04/29 13:39:54;;;;;;;7.80;3.40;;;26.40;45.50;;;;;;4937306;29;20052;-60
2021/04/29 13:42:20;;;;;;;7.60;3.53;;;26.40;45.40;;;;;;4937369;29;20122;-62
2021/04/29 13:44:46;;;;;;;7.07;3.40;;;26.40;45.30;;;;;;4937108;29;20458;-61
2021/04/29 13:47:13;;;;;;;8.07;3.13;;;26.20;44.90;;;;;;4937242;29;20095;-61
2021/04/29 13:49:39;;;;;;;10.77;3.55;;;26.10;44.90;;;;;;4937519;29;20043;-61
2021/04/29 13:52:06;;;;;;;118.03;105.93;;;26.00;44.70;;;;;;4937146;29;20055;-61
2021/04/29 13:54:32;;;;;;;250.77;225.07;;;26.00;45.00;;;;;;4920644;29;20106;-60
2021/04/29 13:56:59;;;;;;;101.45;90.78;;;25.90;45.10;;;;;;4935571;28;20079;-60
2021/04/29 13:59:25;;;;;;;31.77;25.23;;;25.80;45.20;;;;;;4955159;28;20037;-56
2021/04/29 14:01:51;;;;;;;12.63;9.20;;;25.80;45.10;;;;;;4958274;28;20051;-56
2021/04/29 14:04:18;;;;;;;9.32;5.20;;;25.70;44.90;;;;;;4956587;28;20046;-61
2021/04/29 14:06:48;;;;;;;10.02;3.72;;;25.70;44.60;;;;;;4962386;28;20360;-57
2021/04/29 14:09:14;;;;;;;12.80;3.38;;;25.60;44.30;;;;;;4947311;29;20481;-57
2021/04/29 14:11:43;;;;;;;7.75;2.83;;;25.60;44.40;;;;;;4940075;29;20089;-57
2021/04/29 14:14:09;;;;;;;5.20;2.85;;;25.60;44.60;;;;;;4957595;29;20043;-57
2021/04/29 14:16:35;;;;;;;8.63;3.10;;;25.50;44.90;;;;;;4956664;29;20118;-57
2021/04/29 14:19:01;;;;;;;19.88;13.98;;;25.50;45.30;;;;;;4941029;28;20058;-57
2021/04/29 14:21:30;;;;;;;33.60;30.05;;;25.50;45.50;;;;;;4954323;28;20035;-57
2021/04/29 14:23:56;;;;;;;18.88;12.82;;;25.50;45.70;;;;;;4942029;29;20039;-57
2021/04/29 14:26:22;;;;;;;13.50;7.95;;;25.50;45.90;;;;;;4963717;28;20049;-57
2021/04/29 14:28:53;;;;;;;8.48;4.55;;;25.50;45.90;;;;;;4939942;29;20126;-57
2021/04/29 14:31:19;;;;;;;6.55;3.83;;;25.50;45.80;;;;;;4956903;29;20034;-56
2021/04/29 14:33:45;;;;;;;5.75;2.85;;;25.50;45.70;;;;;;4957026;29;20126;-57
2021/04/29 14:36:11;;;;;;;7.90;3.35;;;25.50;45.70;;;;;;4939615;29;20070;-57
2021/04/29 14:38:37;;;;;;;7.00;2.63;;;25.50;45.60;;;;;;4957185;29;20035;-57
2021/04/29 14:41:05;;;;;;;6.10;2.38;;;25.50;45.30;;;;;;4939494;29;20134;-57
2021/04/29 14:43:31;;;;;;;7.65;3.05;;;25.60;45.20;;;;;;4956678;28;20043;-57
2021/04/29 14:45:58;;;;;;;6.82;2.58;;;25.60;44.90;;;;;;4939644;29;20515;-57
2021/04/29 14:48:24;;;;;;;9.43;2.25;;;25.50;44.50;;;;;;4956867;29;20070;-57
2021/04/29 14:50:50;;;;;;;5.22;2.92;;;25.50;44.30;;;;;;4939655;29;20077;-57
2021/04/29 14:53:17;;;;;;;6.65;2.65;;;25.50;44.10;;;;;;4956608;29;20053;-56
2021/04/29 14:55:46;;;;;;;33.65;26.45;;;25.50;43.90;;;;;;4956775;29;20538;-56
2021/04/29 14:58:14;;;;;;;47.70;42.60;;;25.60;43.50;;;;;;4956565;29;20371;-56
2021/04/29 15:00:40;;;;;;;49.65;44.55;;;25.50;43.60;;;;;;4956438;29;20413;-56
2021/04/29 15:03:06;;;;;;;35.03;30.75;;;25.60;43.60;;;;;;4956248;29;20035;-56
2021/04/29 15:05:33;;;;;;;37.95;33.67;;;25.60;43.50;;;;;;4939145;29;20054;-56
2021/04/29 15:07:59;;;;;;;20.15;17.85;;;25.60;43.70;;;;;;4956026;29;20115;-56
2021/04/29 15:10:27;;;;;;;12.23;7.78;;;25.60;43.30;;;;;;4956310;29;20041;-56
2021/04/29 15:12:57;;;;;;;8.98;5.30;;;25.60;43.10;;;;;;4956336;29;20055;-56
2021/04/29 15:15:24;;;;;;;7.75;3.50;;;25.60;43.80;;;;;;4938433;29;20062;-56
2021/04/29 15:17:50;;;;;;;6.00;2.83;;;25.60;43.50;;;;;;4956304;29;20046;-56
2021/04/29 15:20:20;;;;;;;9.02;2.97;;;25.60;43.70;;;;;;4938864;29;20144;-57
2021/04/29 15:22:47;;;;;;;9.70;3.03;;;25.60;43.80;;;;;;4955910;29;20039;-57
2021/04/29 15:25:14;;;;;;;7.00;2.42;;;25.60;43.70;;;;;;4939207;29;20394;-57
2021/04/29 15:27:44;;;;;;;6.28;1.98;;;25.70;43.60;;;;;;4955791;29;20102;-61
2021/04/29 15:30:16;;;;;;;13.23;2.72;;;25.60;43.50;;;;;;4954766;29;20054;-61
2021/04/29 15:32:43;;;;;;;4.20;2.97;;;25.60;43.50;;;;;;4954312;29;20035;-61
2021/04/29 15:35:11;;;;;;;8.90;2.47;;;25.70;43.70;;;;;;4960408;28;20038;-58
2021/04/29 15:37:37;;;;;;;7.43;2.67;;;25.70;43.70;;;;;;4954179;29;20035;-59
2021/04/29 15:40:05;;;;;;;10.35;2.65;;;25.70;43.70;;;;;;4954576;29;20043;-58
2021/04/29 15:42:31;;;;;;;8.63;3.03;;;25.70;43.60;;;;;;4937580;29;20047;-59
2021/04/29 15:44:57;;;;;;;4.82;2.53;;;25.60;43.60;;;;;;4954881;29;20056;-58
2021/04/29 15:47:23;;;;;;;9.98;3.28;;;25.60;43.50;;;;;;4937884;29;20106;-58
2021/04/29 15:49:49;;;;;;;8.05;3.72;;;25.70;43.40;;;;;;4954925;29;20397;-58
2021/04/29 15:52:16;;;;;;;5.63;3.55;;;25.70;43.60;;;;;;4957327;28;20027;-58
2021/04/29 15:54:42;;;;;;;7.03;3.08;;;25.70;43.90;;;;;;4953686;28;20490;-58
2021/04/29 15:57:08;;;;;;;6.50;3.25;;;25.70;43.90;;;;;;4951809;28;20149;-62
2021/04/29 15:59:34;;;;;;;7.57;3.20;;;25.70;43.90;;;;;;4947118;29;20043;-62